createdAt,value
2023-03-22T00:01:10.801Z,9.7
2023-03-22T00:11:12.909Z,10.1
2023-03-22T00:21:14.810Z,10.3
2023-03-22T00:31:16.836Z,10.4
2023-03-22T00:41:18.484Z,10.7
2023-03-22T00:51:20.232Z,10.7
2023-03-22T01:01:22.415Z,10.7
2023-03-22T01:11:24.144Z,10.3
2023-03-22T01:21:26.557Z,10.4
2023-03-22T01:31:28.572Z,10.4
2023-03-22T01:41:30.512Z,10.4
2023-03-22T01:51:33.136Z,10.2
2023-03-22T02:01:35.482Z,10.4
2023-03-22T02:11:37.186Z,10.2
2023-03-22T02:21:39.419Z,10
2023-03-22T02:41:43.947Z,10.3
2023-03-22T02:51:46.514Z,10.3
2023-03-22T03:01:48.904Z,9.9
2023-03-22T03:11:51.192Z,9.7
2023-03-22T03:21:53.452Z,9.9
2023-03-22T03:31:55.206Z,9.6
2023-03-22T03:41:57.275Z,9.5
2023-03-22T03:51:59.368Z,9.2
2023-03-22T04:02:01.431Z,9
2023-03-22T04:12:03.871Z,8.8
2023-03-22T04:22:05.531Z,8.8
2023-03-22T04:32:07.458Z,8.7
2023-03-22T04:42:10.009Z,8.6
2023-03-22T04:52:12.707Z,8.4
2023-03-22T05:02:14.390Z,8.2
2023-03-22T05:12:16.160Z,8.1
2023-03-22T05:22:18.066Z,8.2
2023-03-22T05:32:20.710Z,9.1
2023-03-22T05:42:22.730Z,9.4
2023-03-22T05:52:25.145Z,9.8
2023-03-22T06:02:27.612Z,10
2023-03-22T06:12:30.203Z,10.1
2023-03-22T06:22:31.721Z,10.3
2023-03-22T06:32:33.730Z,10.5
2023-03-22T06:42:35.652Z,10.7
2023-03-22T06:52:37.953Z,10.9
2023-03-22T07:02:40.273Z,11
2023-03-22T07:12:41.939Z,11.2
2023-03-22T07:22:43.869Z,11.4
2023-03-22T07:32:45.965Z,11.3
2023-03-22T07:42:48.105Z,11.7
2023-03-22T07:52:50.033Z,12.7
2023-03-22T08:02:52.060Z,12.7
2023-03-22T08:22:56.027Z,11.9
2023-03-22T08:32:58.595Z,12.1
2023-03-22T08:43:00.767Z,12.3
2023-03-22T08:53:02.464Z,12.4
2023-03-22T09:03:04.688Z,12.2
2023-03-22T09:13:06.878Z,12.2
2023-03-22T09:23:08.726Z,12.3
2023-03-22T09:33:10.764Z,12.4
2023-03-22T09:43:13.333Z,12.6
2023-03-22T09:53:15.390Z,12.2
2023-03-22T10:03:17.184Z,12.4
2023-03-22T10:13:19.383Z,13
2023-03-22T10:23:21.510Z,12.7
2023-03-22T10:33:23.301Z,12.8
2023-03-22T10:43:25.058Z,13.1
2023-03-22T10:53:27.061Z,13.8
2023-03-22T11:13:31.012Z,13.2
2023-03-22T11:23:32.684Z,13.3
2023-03-22T11:33:34.809Z,13.4
2023-03-22T11:43:37.292Z,13.4
2023-03-22T11:53:39.581Z,13.1
2023-03-22T12:03:41.663Z,12.6
2023-03-22T12:13:43.633Z,12.7
2023-03-22T12:23:45.675Z,12.2
2023-03-22T12:33:48.142Z,12.4
2023-03-22T12:43:50.695Z,12.9
2023-03-22T12:53:53.079Z,13
2023-03-22T13:03:55.373Z,12.7
2023-03-22T13:13:57.806Z,12.4
2023-03-22T13:23:59.761Z,12.5
2023-03-22T13:34:01.834Z,12.6
2023-03-22T13:44:04.815Z,12.6
2023-03-22T14:04:07.650Z,12.9
2023-03-22T14:14:10.155Z,13.1
2023-03-22T14:54:18.351Z,12.6
2023-03-22T15:04:20.373Z,12.5
2023-03-22T15:14:22.419Z,12.5
2023-03-22T15:24:24.090Z,12.5
2023-03-22T15:34:25.942Z,12.4
2023-03-22T15:44:28.043Z,12.5
2023-03-22T15:54:29.926Z,12.5
2023-03-22T16:04:31.923Z,12.5
2023-03-22T16:24:36.200Z,12.7
2023-03-22T16:44:42.471Z,12.7
2023-03-22T17:04:44.225Z,12.7
2023-03-22T17:14:46.327Z,12.7
2023-03-22T17:24:48.490Z,12.7
2023-03-22T17:34:50.335Z,12.7
2023-03-22T17:55:17.856Z,12.7
2023-03-22T18:05:03.835Z,12.7
2023-03-22T18:15:06.048Z,12.7
2023-03-22T18:25:08.400Z,12.7
2023-03-22T18:35:10.581Z,12.7
2023-03-22T18:45:15.898Z,12.5
2023-03-22T18:55:25.037Z,12.5
2023-03-22T19:05:17.366Z,12.5
2023-03-22T19:25:20.831Z,12.4
2023-03-22T19:35:23.406Z,12.5
2023-03-22T19:55:27.668Z,12.7
2023-03-22T20:05:30.120Z,12.7
2023-03-22T20:15:32.054Z,12.4
2023-03-22T20:25:33.900Z,12.3
2023-03-22T20:35:35.638Z,12.3
2023-03-22T20:45:38.122Z,12.2
2023-03-22T20:55:39.949Z,12.1
2023-03-22T21:05:41.963Z,12.1
2023-03-22T21:15:44.014Z,12.1
2023-03-22T21:25:46.553Z,12
2023-03-22T21:35:48.852Z,11.8
2023-03-22T21:45:51.358Z,11.7
2023-03-22T21:55:53.455Z,11.4
2023-03-22T22:05:55.865Z,11.1
2023-03-22T22:15:58.101Z,10.9
2023-03-22T22:36:02.449Z,10.9
2023-03-22T22:46:04.354Z,10.8
2023-03-22T22:56:06.805Z,10.6
2023-03-22T23:06:08.950Z,10.4
2023-03-22T23:16:10.794Z,10.4
2023-03-22T23:26:12.777Z,10.3
2023-03-22T23:36:15.302Z,10.2
2023-03-22T23:46:17.137Z,10.2
2023-03-22T23:56:19.722Z,10.2
